Time;durP1;ratioP1;P1;durP2;ratioP2;P2;SDS_P1;SDS_P2;PMS_P1;PMS_P2;Temp;Humidity;BMP_temperature;BMP_pressure;BME280_temperature;BME280_humidity;BME280_pressure;Samples;Min_cycle;Max_cycle;Signal;HPM_P1;HPM_P2
2023/10/01 00:00:38;;;;;;;;;;;;;;;;;;5048381;28;21049;-62
2023/10/01 00:03:06;;;;;;;;;;;;;;;;;;5026977;28;20006;-61
2023/10/01 00:05:31;;;;;;;;;;;;;;;;;;5026820;28;19920;-61
2023/10/01 00:07:56;;;;;;;;;;;;;;;;;;5026689;28;19921;-61
2023/10/01 00:10:22;;;;;;;;;;;;;;;;;;5030032;28;19917;-61
2023/10/01 00:12:47;;;;;;;;;;;;;;;;;;5049440;28;19927;-61
2023/10/01 00:15:14;;;;;;;;;;;;;;;;;;5028171;28;20188;-61
2023/10/01 00:17:40;;;;;;;;;;;;;;;;;;5049358;28;19927;-61
2023/10/01 00:20:20;;;;;;;;;;;;;;;;;;5029413;28;19921;-61
2023/10/01 00:22:45;;;;;;;;;;;;;;;;;;5028765;28;19977;-61
2023/10/01 00:25:14;;;;;;;;;;;;;;;;;;5029509;28;20211;-61
2023/10/01 00:27:40;;;;;;;;;;;;;;;;;;5015460;28;19917;-61
2023/10/01 00:30:07;;;;;;;;;;;;;;;;;;5047457;28;19943;-61
2023/10/01 00:32:38;;;;;;;;;;;;;;;;;;5030325;28;19954;-61
2023/10/01 00:35:04;;;;;;;;;;;;;;;;;;5048818;28;19927;-61
2023/10/01 00:37:29;;;;;;;;;;;;;;;;;;5028186;28;19916;-61
2023/10/01 00:39:54;;;;;;;;;;;;;;;;;;5028721;28;20504;-61
2023/10/01 00:42:21;;;;;;;;;;;;;;;;;;5046825;28;19924;-61
2023/10/01 00:44:47;;;;;;;;;;;;;;;;;;5011971;28;19927;-61
2023/10/01 00:47:17;;;;;;;;;;;;;;;;;;5044893;28;20299;-61
2023/10/01 00:49:51;;;;;;;;;;;;;;;;;;5026681;28;19920;-61
2023/10/01 00:52:23;;;;;;;;;;;;;;;;;;5029124;28;19917;-61
2023/10/01 00:54:57;;;;;;;;;;;;;;;;;;5028285;28;19928;-61
2023/10/01 00:57:22;;;;;;;;;;;;;;;;;;5031390;28;19970;-61
2023/10/01 00:59:51;;;;;;;;;;;;;;;;;;5009789;28;19923;-61
2023/10/01 01:02:16;;;;;;;;;;;;;;;;;;5010993;28;19985;-61
2023/10/01 01:04:44;;;;;;;;;;;;;;;;;;5011093;28;19916;-61
2023/10/01 01:07:19;;;;;;;;;;;;;;;;;;5042456;28;20027;-61
2023/10/01 01:09:45;;;;;;;;;;;;;;;;;;5045324;28;20387;-61
2023/10/01 01:12:13;;;;;;;;;;;;;;;;;;5046645;28;20089;-61
2023/10/01 01:14:39;;;;;;;;;;;;;;;;;;5047945;28;19965;-61
2023/10/01 01:17:09;;;;;;;;;;;;;;;;;;5012572;28;19920;-61
2023/10/01 01:19:34;;;;;;;;;;;;;;;;;;5048225;28;19920;-62
2023/10/01 01:22:09;;;;;;;;;;;;;;;;;;5044133;28;19921;-61
2023/10/01 01:24:38;;;;;;;;;;;;;;;;;;5012580;28;20066;-62
2023/10/01 01:27:07;;;;;;;;;;;;;;;;;;5047119;28;19921;-61
2023/10/01 01:29:40;;;;;;;;;;;;;;;;;;5011990;28;19923;-61
2023/10/01 01:32:19;;;;;;;;;;;;;;;;;;5047250;28;19927;-61
2023/10/01 01:34:45;;;;;;;;;;;;;;;;;;5028357;28;19974;-61
2023/10/01 01:37:30;;;;;;;;;;;;;;;;;;5043378;28;19920;-61
2023/10/01 01:40:08;;;;;;;;;;;;;;;;;;5024726;28;19921;-61
2023/10/01 01:42:36;;;;;;;;;;;;;;;;;;5010731;28;19925;-62
2023/10/01 01:45:19;;;;;;;;;;;;;;;;;;5027002;28;20584;-61
2023/10/01 01:47:47;;;;;;;;;;;;;;;;;;5027527;28;20015;-61
2023/10/01 01:50:19;;;;;;;;;;;;;;;;;;5029217;28;19926;-61
2023/10/01 01:52:44;;;;;;;;;;;;;;;;;;5026864;28;19927;-61
2023/10/01 01:55:23;;;;;;;;;;;;;;;;;;5027414;28;20530;-62
2023/10/01 01:58:03;;;;;;;;;;;;;;;;;;5011800;28;19995;-61
2023/10/01 02:00:35;;;;;;;;;;;;;;;;;;5046581;28;20410;-61
2023/10/01 02:03:02;;;;;;;;;;;;;;;;;;5010849;28;20153;-61
2023/10/01 02:05:28;;;;;;;;;;;;;;;;;;5028087;28;19921;-60
2023/10/01 02:07:56;;;;;;;;;;;;;;;;;;5024460;28;19973;-61
2023/10/01 02:10:24;;;;;;;;;;;;;;;;;;5047862;28;20035;-62
2023/10/01 02:12:52;;;;;;;;;;;;;;;;;;5043575;28;19927;-61
2023/10/01 02:15:24;;;;;;;;;;;;;;;;;;5026818;28;20338;-61
2023/10/01 02:17:53;;;;;;;;;;;;;;;;;;5044029;28;19927;-61
2023/10/01 02:20:22;;;;;;;;;;;;;;;;;;5025531;28;19978;-62
2023/10/01 02:22:48;;;;;;;;;;;;;;;;;;5042924;28;19925;-62
2023/10/01 02:25:16;;;;;;;;;;;;;;;;;;5026471;28;20391;-62
2023/10/01 02:27:49;;;;;;;;;;;;;;;;;;5027043;28;19943;-62
2023/10/01 02:30:16;;;;;;;;;;;;;;;;;;;;;
2023/10/01 02:33:22;;;;;;;;;;;;;;;;;;5046248;28;20513;-62
2023/10/01 02:35:34;;;;;;;;;;;;;;;;;;5038448;28;19966;-63
2023/10/01 02:38:02;;;;;;;;;;;;;;;;;;5026239;28;20062;-62
2023/10/01 02:40:34;;;;;;;;;;;;;;;;;;5025699;28;19917;-62
2023/10/01 02:43:05;;;;;;;;;;;;;;;;;;5026050;28;19924;-62
2023/10/01 02:45:31;;;;;;;;;;;;;;;;;;5045252;28;19966;-62
2023/10/01 02:48:16;;;;;;;;;;;;;;;;;;5027605;28;20003;-62
2023/10/01 02:50:42;;;;;;;;;;;;;;;;;;5025972;28;19916;-62
2023/10/01 02:53:08;;;;;;;;;;;;;;;;;;5046067;28;19926;-62
2023/10/01 02:55:41;;;;;;;;;;;;;;;;;;5048508;28;20903;-61
2023/10/01 02:58:17;;;;;;;;;;;;;;;;;;5046022;28;20871;-61
2023/10/01 03:00:45;;;;;;;;;;;;;;;;;;5027141;28;19917;-62
2023/10/01 03:03:17;;;;;;;;;;;;;;;;;;5040995;28;19921;-62
2023/10/01 03:05:48;;;;;;;;;;;;;;;;;;5009323;28;20580;-61
2023/10/01 03:10:57;;;;;;;;;;;;;;;;;;5042677;28;19928;-62
2023/10/01 03:13:30;;;;;;;;;;;;;;;;;;5045453;28;21858;-61
2023/10/01 03:18:44;;;;;;;;;;;;;;;;;;5042116;28;19927;-62
2023/10/01 03:21:19;;;;;;;;;;;;;;;;;;5011694;28;20264;-62
2023/10/01 03:23:52;;;;;;;;;;;;;;;;;;5020392;28;19924;-61
2023/10/01 03:26:17;;;;;;;;;;;;;;;;;;5046897;28;20659;-61
2023/10/01 03:31:27;;;;;;;;;;;;;;;;;;5044788;28;19920;-61
2023/10/01 03:33:54;;;;;;;;;;;;;;;;;;5045432;28;20017;-61
2023/10/01 03:36:25;;;;;;;;;;;;;;;;;;5024523;28;19916;-61
2023/10/01 03:38:50;;;;;;;;;;;;;;;;;;5028345;28;20702;-61
2023/10/01 03:41:27;;;;;;;;;;;;;;;;;;5030156;28;19927;-62
2023/10/01 03:44:10;;;;;;;;;;;;;;;;;;5025001;28;19977;-61
2023/10/01 03:46:51;;;;;;;;;;;;;;;;;;5045962;28;19916;-61
2023/10/01 03:52:01;;;;;;;;;;;;;;;;;;5045615;28;19932;-61
2023/10/01 03:57:17;;;;;;;;;;;;;;;;;;5051236;28;20563;-62
2023/10/01 03:59:52;;;;;;;;;;;;;;;;;;5026303;28;19951;-61
2023/10/01 04:05:21;;;;;;;;;;;;;;;;;;5030332;28;20640;-63
2023/10/01 04:07:50;;;;;;;;;;;;;;;;;;5014790;28;19927;-61
2023/10/01 04:10:28;;;;;;;;;;;;;;;;;;5048457;28;20824;-61
2023/10/01 04:13:12;;;;;;;;;;;;;;;;;;5028052;28;20322;-60
2023/10/01 04:15:41;;;;;;;;;;;;;;;;;;5026963;28;19987;-61
2023/10/01 04:20:47;;;;;;;;;;;;;;;;;;5044570;28;19916;-61
2023/10/01 04:23:31;;;;;;;;;;;;;;;;;;5044126;28;19950;-61
2023/10/01 04:26:08;;;;;;;;;;;;;;;;;;5029521;28;20208;-63
2023/10/01 04:28:35;;;;;;;;;;;;;;;;;;5030260;28;19932;-62
2023/10/01 04:31:08;;;;;;;;;;;;;;;;;;5014448;28;19928;-63
2023/10/01 04:33:34;;;;;;;;;;;;;;;;;;5049203;28;19931;-63
2023/10/01 04:36:04;;;;;;;;;;;;;;;;;;5045413;28;19943;-62
2023/10/01 04:41:58;;;;;;;;;;;;;;;;;;5045273;28;19969;-63
2023/10/01 04:44:24;;;;;;;;;;;;;;;;;;5049359;28;19916;-63
2023/10/01 04:46:55;;;;;;;;;;;;;;;;;;5029542;28;19959;-63
2023/10/01 04:49:39;;;;;;;;;;;;;;;;;;5026696;28;19917;-62
2023/10/01 04:52:11;;;;;;;;;;;;;;;;;;5028177;28;20011;-63
2023/10/01 04:54:37;;;;;;;;;;;;;;;;;;5025762;28;21121;-63
2023/10/01 04:57:02;;;;;;;;;;;;;;;;;;5046338;28;19928;-62
2023/10/01 04:59:27;;;;;;;;;;;;;;;;;;5047127;28;19920;-63
2023/10/01 05:02:18;;;;;;;;;;;;;;;;;;5043366;28;19990;-61
2023/10/01 05:04:47;;;;;;;;;;;;;;;;;;5028998;28;19982;-61
2023/10/01 05:07:14;;;;;;;;;;;;;;;;;;5030630;28;20065;-62
2023/10/01 05:09:41;;;;;;;;;;;;;;;;;;5047634;28;19920;-61
2023/10/01 05:12:11;;;;;;;;;;;;;;;;;;5028478;28;20007;-61
2023/10/01 05:14:59;;;;;;;;;;;;;;;;;;5028686;28;19943;-61
2023/10/01 05:17:30;;;;;;;;;;;;;;;;;;5048977;28;19932;-61
2023/10/01 05:19:55;;;;;;;;;;;;;;;;;;5048532;28;19974;-62
2023/10/01 05:22:24;;;;;;;;;;;;;;;;;;5025588;28;20456;-62
2023/10/01 05:24:50;;;;;;;;;;;;;;;;;;5048994;28;19916;-61
2023/10/01 05:27:22;;;;;;;;;;;;;;;;;;5025017;28;21822;-62
2023/10/01 05:29:49;;;;;;;;;;;;;;;;;;5045953;28;20401;-62
2023/10/01 05:32:18;;;;;;;;;;;;;;;;;;5026965;28;20008;-61
2023/10/01 05:34:46;;;;;;;;;;;;;;;;;;5028493;28;19931;-61
2023/10/01 05:37:20;;;;;;;;;;;;;;;;;;5007815;28;20022;-61
2023/10/01 05:39:57;;;;;;;;;;;;;;;;;;5045364;28;20019;-61
2023/10/01 05:42:25;;;;;;;;;;;;;;;;;;5015377;28;19920;-61
2023/10/01 05:44:50;;;;;;;;;;;;;;;;;;5029171;28;19923;-62
2023/10/01 05:47:16;;;;;;;;;;;;;;;;;;5027229;28;19920;-62
2023/10/01 05:49:49;;;;;;;;;;;;;;;;;;5028342;28;20370;-62
2023/10/01 05:52:14;;;;;;;;;;;;;;;;;;5048391;28;19927;-61
2023/10/01 05:54:52;;;;;;;;;;;;;;;;;;5028104;28;20443;-62
2023/10/01 05:57:17;;;;;;;;;;;;;;;;;;5025167;28;20410;-62
2023/10/01 05:59:42;;;;;;;;;;;;;;;;;;5023923;28;20054;-62
2023/10/01 06:02:08;;;;;;;;;;;;;;;;;;5047964;28;20305;-62
2023/10/01 06:04:42;;;;;;;;;;;;;;;;;;5024262;28;20391;-62
2023/10/01 06:07:11;;;;;;;;;;;;;;;;;;5025952;28;19947;-62
2023/10/01 06:09:37;;;;;;;;;;;;;;;;;;5010546;28;20053;-62
2023/10/01 06:12:03;;;;;;;;;;;;;;;;;;5046888;28;20428;-62
2023/10/01 06:14:45;;;;;;;;;;;;;;;;;;5030432;28;20069;-62
2023/10/01 06:17:11;;;;;;;;;;;;;;;;;;5025369;28;19924;-61
2023/10/01 06:19:40;;;;;;;;;;;;;;;;;;5046283;28;19920;-61
2023/10/01 06:22:25;;;;;;;;;;;;;;;;;;5044755;28;20378;-61
2023/10/01 06:24:56;;;;;;;;;;;;;;;;;;5008671;28;19959;-61
2023/10/01 06:30:40;;;;;;;;;;;;;;;;;;5047538;28;20310;-62
2023/10/01 06:33:08;;;;;;;;;;;;;;;;;;5047688;28;20470;-61
2023/10/01 06:35:59;;;;;;;;;;;;;;;;;;5024307;28;19916;-62
2023/10/01 06:38:21;;;;;;;;;;;;;;;;;;5026685;28;20019;-62
2023/10/01 06:40:47;;;;;;;;;;;;;;;;;;5009379;28;19943;-62
2023/10/01 06:43:12;;;;;;;;;;;;;;;;;;5047930;28;19935;-61
2023/10/01 06:45:41;;;;;;;;;;;;;;;;;;5028282;28;19927;-62
2023/10/01 06:48:08;;;;;;;;;;;;;;;;;;5027094;28;20392;-62
2023/10/01 06:50:37;;;;;;;;;;;;;;;;;;5011360;28;20031;-61
2023/10/01 06:53:04;;;;;;;;;;;;;;;;;;5005909;28;21837;-63
2023/10/01 06:55:32;;;;;;;;;;;;;;;;;;5047922;28;19954;-61
2023/10/01 06:58:00;;;;;;;;;;;;;;;;;;5010492;28;20532;-61
2023/10/01 07:00:33;;;;;;;;;;;;;;;;;;5024735;28;19920;-61
2023/10/01 07:03:16;;;;;;;;;;;;;;;;;;5025315;28;19920;-61
2023/10/01 07:05:45;;;;;;;;;;;;;;;;;;5010659;28;19920;-63
2023/10/01 07:08:13;;;;;;;;;;;;;;;;;;5046113;28;19924;-62
2023/10/01 07:10:38;;;;;;;;;;;;;;;;;;5045555;28;20041;-61
2023/10/01 07:13:07;;;;;;;;;;;;;;;;;;5014230;28;20518;-61
2023/10/01 07:15:35;;;;;;;;;;;;;;;;;;5046573;28;19920;-62
2023/10/01 07:18:13;;;;;;;;;;;;;;;;;;5052139;28;19920;-61
2023/10/01 07:20:38;;;;;;;;;;;;;;;;;;5052057;28;20972;-62
2023/10/01 07:23:03;;;;;;;;;;;;;;;;;;5050360;28;19935;-62
2023/10/01 07:25:37;;;;;;;;;;;;;;;;;;5030590;28;20364;-62
2023/10/01 07:28:02;;;;;;;;;;;;;;;;;;5051842;28;19917;-62
2023/10/01 07:30:45;;;;;;;;;;;;;;;;;;5050367;28;19944;-63
2023/10/01 07:33:10;;;;;;;;;;;;;;;;;;5053072;28;19920;-62
2023/10/01 07:35:35;;;;;;;;;;;;;;;;;;5030381;28;20029;-62
2023/10/01 07:38:02;;;;;;;;;;;;;;;;;;5050779;28;19920;-62
2023/10/01 07:40:50;;;;;;;;;;;;;;;;;;5028583;28;19943;-62
2023/10/01 07:43:13;;;;;;;;;;;;;;;;;;5029011;28;19921;-62
2023/10/01 07:45:38;;;;;;;;;;;;;;;;;;5028638;28;19923;-62
2023/10/01 07:48:04;;;;;;;;;;;;;;;;;;5028086;28;20362;-62
2023/10/01 07:50:30;;;;;;;;;;;;;;;;;;5027812;28;19978;-62
2023/10/01 07:53:03;;;;;;;;;;;;;;;;;;5024174;28;20672;-62
2023/10/01 07:55:34;;;;;;;;;;;;;;;;;;5045734;28;20018;-62
2023/10/01 07:58:46;;;;;;;;;;;;;;;;;;5025733;28;19924;-64
2023/10/01 08:00:47;;;;;;;;;;;;;;;;;;5021460;28;19920;-62
2023/10/01 08:05:49;;;;;;;;;;;;;;;;;;5033355;28;19923;-62
2023/10/01 08:08:15;;;;;;;;;;;;;;;;;;5014180;28;19920;-62
2023/10/01 08:10:44;;;;;;;;;;;;;;;;;;5033457;28;19943;-62
2023/10/01 08:13:24;;;;;;;;;;;;;;;;;;5031733;28;19928;-62
2023/10/01 08:15:58;;;;;;;;;;;;;;;;;;5049080;28;19924;-62
2023/10/01 08:18:34;;;;;;;;;;;;;;;;;;5050622;28;19924;-62
2023/10/01 08:21:02;;;;;;;;;;;;;;;;;;5048743;28;19916;-61
2023/10/01 08:23:28;;;;;;;;;;;;;;;;;;5049800;28;20020;-62
2023/10/01 08:25:55;;;;;;;;;;;;;;;;;;5030993;28;19947;-62
2023/10/01 08:30:49;;;;;;;;;;;;;;;;;;5050976;28;19927;-60
2023/10/01 08:33:26;;;;;;;;;;;;;;;;;;5029387;28;20297;-61
2023/10/01 08:36:01;;;;;;;;;;;;;;;;;;5027774;28;19920;-62
2023/10/01 08:38:47;;;;;;;;;;;;;;;;;;5049886;28;19927;-62
2023/10/01 08:41:12;;;;;;;;;;;;;;;;;;5051333;28;19917;-62
2023/10/01 08:43:38;;;;;;;;;;;;;;;;;;5028935;28;19931;-61
2023/10/01 08:46:05;;;;;;;;;;;;;;;;;;5016480;28;19927;-62
2023/10/01 08:48:36;;;;;;;;;;;;;;;;;;5049035;28;19920;-62
2023/10/01 08:51:08;;;;;;;;;;;;;;;;;;5012743;28;19920;-61
2023/10/01 08:53:36;;;;;;;;;;;;;;;;;;5030771;28;19936;-63
2023/10/01 08:58:27;;;;;;;;;;;;;;;;;;5030562;28;19931;-63
2023/10/01 09:00:53;;;;;;;;;;;;;;;;;;5029218;28;20375;-62
2023/10/01 09:03:30;;;;;;;;;;;;;;;;;;5050802;28;20501;-63
2023/10/01 09:06:03;;;;;;;;;;;;;;;;;;5030132;28;19936;-62
2023/10/01 09:08:32;;;;;;;;;;;;;;;;;;5050394;28;20383;-62
2023/10/01 09:11:02;;;;;;;;;;;;;;;;;;5028599;28;20015;-62
2023/10/01 09:13:30;;;;;;;;;;;;;;;;;;5015156;28;19920;-62
2023/10/01 09:15:55;;;;;;;;;;;;;;;;;;5027130;28;19940;-61
2023/10/01 09:18:24;;;;;;;;;;;;;;;;;;5011988;28;19943;-62
2023/10/01 09:21:08;;;;;;;;;;;;;;;;;;5012181;28;20333;-62
2023/10/01 09:23:54;;;;;;;;;;;;;;;;;;5027913;28;19924;-63
2023/10/01 09:26:37;;;;;;;;;;;;;;;;;;5029844;28;19920;-63
2023/10/01 09:29:13;;;;;;;;;;;;;;;;;;5030269;28;20007;-61
2023/10/01 09:31:43;;;;;;;;;;;;;;;;;;5048339;28;19920;-61
2023/10/01 09:34:08;;;;;;;;;;;;;;;;;;5049459;28;19946;-62
2023/10/01 09:36:45;;;;;;;;;;;;;;;;;;5011723;28;19928;-62
2023/10/01 09:39:11;;;;;;;;;;;;;;;;;;5049675;28;19920;-62
2023/10/01 09:41:40;;;;;;;;;;;;;;;;;;5049327;28;20399;-62
2023/10/01 09:44:07;;;;;;;;;;;;;;;;;;5026217;28;19956;-62
2023/10/01 09:46:35;;;;;;;;;;;;;;;;;;5049537;28;19928;-62
2023/10/01 09:49:02;;;;;;;;;;;;;;;;;;5049839;28;19920;-63
2023/10/01 09:51:35;;;;;;;;;;;;;;;;;;5029802;28;20276;-62
2023/10/01 09:54:02;;;;;;;;;;;;;;;;;;5047994;28;19952;-62
2023/10/01 09:57:10;;;;;;;;;;;;;;;;;;5030010;28;19916;-62
2023/10/01 09:59:16;;;;;;;;;;;;;;;;;;5040625;28;19944;-64
2023/10/01 10:01:42;;;;;;;;;;;;;;;;;;5012535;28;20174;-62
2023/10/01 10:04:07;;;;;;;;;;;;;;;;;;5028065;28;19916;-63
2023/10/01 10:09:53;;;;;;;;;;;;;;;;;;5048406;28;19966;-63
2023/10/01 10:12:22;;;;;;;;;;;;;;;;;;5030270;28;19920;-63
2023/10/01 10:14:56;;;;;;;;;;;;;;;;;;5027220;28;19927;-63
2023/10/01 10:17:25;;;;;;;;;;;;;;;;;;5026114;28;19917;-63
2023/10/01 10:19:50;;;;;;;;;;;;;;;;;;5048865;28;19924;-63
2023/10/01 10:22:19;;;;;;;;;;;;;;;;;;5028913;28;19932;-63
2023/10/01 10:24:47;;;;;;;;;;;;;;;;;;5011405;28;19921;-63
2023/10/01 10:27:17;;;;;;;;;;;;;;;;;;5048497;28;19920;-63
2023/10/01 10:29:46;;;;;;;;;;;;;;;;;;5045694;28;20342;-64
2023/10/01 10:32:11;;;;;;;;;;;;;;;;;;5048895;28;19920;-64
2023/10/01 10:34:37;;;;;;;;;;;;;;;;;;5048989;28;20322;-63
2023/10/01 10:37:06;;;;;;;;;;;;;;;;;;5011251;28;20906;-64
2023/10/01 10:42:56;;;;;;;;;;;;;;;;;;5046095;28;19928;-63
2023/10/01 10:45:26;;;;;;;;;;;;;;;;;;5049873;28;20060;-62
2023/10/01 10:50:25;;;;;;;;;;;;;;;;;;5053332;28;19930;-63
2023/10/01 10:52:54;;;;;;;;;;;;;;;;;;5032840;28;20947;-64
2023/10/01 10:55:20;;;;;;;;;;;;;;;;;;5053743;28;20001;-63
2023/10/01 10:57:48;;;;;;;;;;;;;;;;;;5031432;28;19920;-62
2023/10/01 11:00:39;;;;;;;;;;;;;;;;;;5032942;28;19916;-62
2023/10/01 11:03:09;;;;;;;;;;;;;;;;;;5032511;28;19931;-62
2023/10/01 11:05:49;;;;;;;;;;;;;;;;;;5015533;28;20062;-63
2023/10/01 11:08:26;;;;;;;;;;;;;;;;;;5030816;28;20982;-64
2023/10/01 11:10:54;;;;;;;;;;;;;;;;;;5032114;28;19916;-64
2023/10/01 11:13:27;;;;;;;;;;;;;;;;;;5018268;28;19928;-62
2023/10/01 11:15:57;;;;;;;;;;;;;;;;;;5031207;28;19932;-63
2023/10/01 11:18:25;;;;;;;;;;;;;;;;;;5053129;28;19920;-61
2023/10/01 11:21:01;;;;;;;;;;;;;;;;;;5029049;28;19955;-63
2023/10/01 11:23:30;;;;;;;;;;;;;;;;;;5051457;28;19936;-63
2023/10/01 11:25:56;;;;;;;;;;;;;;;;;;5052101;28;19962;-63
2023/10/01 11:28:22;;;;;;;;;;;;;;;;;;5031652;28;20078;-63
2023/10/01 11:34:05;;;;;;;;;;;;;;;;;;5051794;28;19931;-64
2023/10/01 11:36:35;;;;;;;;;;;;;;;;;;5028822;28;19921;-64
2023/10/01 11:39:04;;;;;;;;;;;;;;;;;;5014429;28;19920;-64
2023/10/01 11:41:38;;;;;;;;;;;;;;;;;;5052023;28;19916;-62
2023/10/01 11:44:05;;;;;;;;;;;;;;;;;;5014044;28;19931;-62
2023/10/01 11:46:35;;;;;;;;;;;;;;;;;;5049554;28;19921;-63
2023/10/01 11:49:02;;;;;;;;;;;;;;;;;;5013346;28;20307;-63
2023/10/01 11:51:30;;;;;;;;;;;;;;;;;;5032502;28;19920;-64
2023/10/01 11:53:58;;;;;;;;;;;;;;;;;;5012965;28;20132;-63
2023/10/01 11:56:23;;;;;;;;;;;;;;;;;;5049316;28;20477;-63
2023/10/01 11:58:48;;;;;;;;;;;;;;;;;;5011289;28;21880;-63
2023/10/01 12:01:17;;;;;;;;;;;;;;;;;;5048179;28;20047;-64
2023/10/01 12:03:58;;;;;;;;;;;;;;;;;;5048525;28;19920;-62
2023/10/01 12:06:33;;;;;;;;;;;;;;;;;;5027924;28;19928;-63
2023/10/01 12:08:59;;;;;;;;;;;;;;;;;;5051019;28;19921;-63
2023/10/01 12:11:31;;;;;;;;;;;;;;;;;;5014367;28;19955;-64
2023/10/01 12:14:06;;;;;;;;;;;;;;;;;;5030828;28;19920;-65
2023/10/01 12:19:26;;;;;;;;;;;;;;;;;;5049790;28;19920;-62
2023/10/01 12:22:09;;;;;;;;;;;;;;;;;;5010630;28;19916;-63
2023/10/01 12:24:40;;;;;;;;;;;;;;;;;;5051430;28;20015;-62
2023/10/01 12:27:08;;;;;;;;;;;;;;;;;;5050534;28;20212;-65
2023/10/01 12:29:48;;;;;;;;;;;;;;;;;;5052608;28;19927;-62
2023/10/01 12:32:14;;;;;;;;;;;;;;;;;;5050116;28;20007;-63
2023/10/01 12:34:39;;;;;;;;;;;;;;;;;;5032360;28;19969;-63
2023/10/01 12:37:35;;;;;;;;;;;;;;;;;;5049279;28;20287;-65
2023/10/01 12:40:14;;;;;;;;;;;;;;;;;;5051381;28;19924;-64
2023/10/01 12:42:40;;;;;;;;;;;;;;;;;;5013071;28;19924;-64
2023/10/01 12:45:13;;;;;;;;;;;;;;;;;;5031512;28;20431;-64
2023/10/01 12:47:40;;;;;;;;;;;;;;;;;;5029797;28;20023;-65
2023/10/01 12:50:09;;;;;;;;;;;;;;;;;;5015662;28;19923;-65
2023/10/01 12:52:35;;;;;;;;;;;;;;;;;;5029533;28;19920;-65
2023/10/01 12:55:01;;;;;;;;;;;;;;;;;;5027503;28;19939;-65
2023/10/01 12:57:33;;;;;;;;;;;;;;;;;;5013433;28;20024;-65
2023/10/01 13:03:09;;;;;;;;;;;;;;;;;;5012334;28;21688;-65
2023/10/01 13:05:43;;;;;;;;;;;;;;;;;;5043513;28;21186;-67
2023/10/01 13:08:10;;;;;;;;;;;;;;;;;;5029042;28;21214;-65
2023/10/01 13:10:47;;;;;;;;;;;;;;;;;;5013412;28;20400;-66
2023/10/01 13:13:19;;;;;;;;;;;;;;;;;;5049055;28;21413;-66
2023/10/01 13:15:45;;;;;;;;;;;;;;;;;;5013527;28;19920;-65
2023/10/01 13:18:22;;;;;;;;;;;;;;;;;;5010067;28;19924;-65
2023/10/01 13:23:25;;;;;;;;;;;;;;;;;;5029275;28;19920;-66
2023/10/01 13:26:05;;;;;;;;;;;;;;;;;;5012662;28;20003;-66
2023/10/01 13:28:43;;;;;;;;;;;;;;;;;;5049867;28;19997;-67
2023/10/01 13:31:10;;;;;;;;;;;;;;;;;;5028924;28;20064;-64
2023/10/01 14:12:41;;;;;;;;;;;;;;;;;;5049506;28;19921;-66
2023/10/01 14:15:04;;;;;;;;;;;;;;;;;;5027816;28;19927;-66
2023/10/01 14:17:30;;;;;;;;;;;;;;;;;;5044553;28;20050;-66
2023/10/01 14:19:58;;;;;;;;;;;;;;;;;;5013126;28;19973;-65
2023/10/01 14:22:24;;;;;;;;;;;;;;;;;;5028258;28;19947;-67
2023/10/01 14:24:49;;;;;;;;;;;;;;;;;;5048651;28;20684;-67
2023/10/01 14:27:29;;;;;;;;;;;;;;;;;;5012414;28;19921;-67
2023/10/01 14:30:23;;;;;;;;;;;;;;;;;;5030379;28;20019;-67
2023/10/01 14:32:51;;;;;;;;;;;;;;;;;;5048541;28;19928;-67
2023/10/01 14:35:16;;;;;;;;;;;;;;;;;;5047966;28;20007;-66
2023/10/01 14:38:04;;;;;;;;;;;;;;;;;;5026930;28;19966;-66
2023/10/01 14:40:29;;;;;;;;;;;;;;;;;;5012034;28;20804;-66
2023/10/01 14:43:00;;;;;;;;;;;;;;;;;;5048295;28;20549;-65
2023/10/01 14:45:43;;;;;;;;;;;;;;;;;;5049030;28;21915;-66
2023/10/01 14:48:11;;;;;;;;;;;;;;;;;;5025815;28;19917;-66
2023/10/01 14:50:40;;;;;;;;;;;;;;;;;;5010217;28;20619;-66
2023/10/01 14:53:05;;;;;;;;;;;;;;;;;;5047763;28;20341;-66
2023/10/01 14:55:40;;;;;;;;;;;;;;;;;;5025764;28;19928;-66
2023/10/01 14:58:16;;;;;;;;;;;;;;;;;;5048573;28;19928;-66
2023/10/01 15:00:49;;;;;;;;;;;;;;;;;;5048044;28;20791;-66
2023/10/01 15:03:14;;;;;;;;;;;;;;;;;;5013506;28;19924;-66
2023/10/01 15:05:40;;;;;;;;;;;;;;;;;;5047762;28;20504;-66
2023/10/01 15:08:07;;;;;;;;;;;;;;;;;;5028380;28;19916;-67
2023/10/01 15:10:36;;;;;;;;;;;;;;;;;;5048898;28;20002;-66
2023/10/01 15:13:01;;;;;;;;;;;;;;;;;;5029013;28;20370;-65
2023/10/01 15:15:27;;;;;;;;;;;;;;;;;;5024264;28;19921;-65
2023/10/01 15:17:56;;;;;;;;;;;;;;;;;;5048520;28;20007;-66
2023/10/01 15:20:47;;;;;;;;;;;;;;;;;;5027842;28;20058;-65
2023/10/01 15:23:15;;;;;;;;;;;;;;;;;;5027769;28;19924;-66
2023/10/01 15:25:41;;;;;;;;;;;;;;;;;;5013716;28;20583;-66
2023/10/01 15:28:09;;;;;;;;;;;;;;;;;;5046985;28;19920;-65
2023/10/01 15:30:44;;;;;;;;;;;;;;;;;;5010212;28;20053;-66
2023/10/01 15:33:15;;;;;;;;;;;;;;;;;;5049103;28;20403;-66
2023/10/01 15:35:48;;;;;;;;;;;;;;;;;;5047543;28;20467;-66
2023/10/01 15:38:26;;;;;;;;;;;;;;;;;;5052644;28;19920;-66
2023/10/01 15:41:26;;;;;;;;;;;;;;;;;;5050296;28;19926;-67
2023/10/01 15:43:54;;;;;;;;;;;;;;;;;;5006192;28;20034;-67
2023/10/01 15:46:19;;;;;;;;;;;;;;;;;;5023216;28;19928;-66
2023/10/01 15:48:51;;;;;;;;;;;;;;;;;;5048752;28;19920;-66
2023/10/01 15:51:26;;;;;;;;;;;;;;;;;;5011984;28;19962;-66
2023/10/01 15:53:55;;;;;;;;;;;;;;;;;;5049974;28;19951;-65
2023/10/01 15:56:30;;;;;;;;;;;;;;;;;;5006685;28;19971;-66
2023/10/01 15:58:58;;;;;;;;;;;;;;;;;;5022452;28;19931;-65
2023/10/01 16:01:23;;;;;;;;;;;;;;;;;;5005589;28;19925;-66
2023/10/01 16:03:52;;;;;;;;;;;;;;;;;;5022853;28;19925;-66
2023/10/01 16:06:18;;;;;;;;;;;;;;;;;;5026383;28;19921;-66
2023/10/01 16:08:46;;;;;;;;;;;;;;;;;;5024372;28;19952;-66
2023/10/01 16:11:12;;;;;;;;;;;;;;;;;;5021075;28;19924;-65
2023/10/01 16:13:40;;;;;;;;;;;;;;;;;;5004652;28;19921;-65
2023/10/01 16:16:05;;;;;;;;;;;;;;;;;;5006372;28;20371;-63
2023/10/01 16:18:31;;;;;;;;;;;;;;;;;;5005759;28;20016;-66
2023/10/01 16:21:02;;;;;;;;;;;;;;;;;;5006768;28;20071;-65
2023/10/01 16:23:31;;;;;;;;;;;;;;;;;;5017742;28;20032;-65
2023/10/01 16:25:56;;;;;;;;;;;;;;;;;;5021442;28;19936;-66
2023/10/01 16:28:24;;;;;;;;;;;;;;;;;;5022941;28;19917;-66
2023/10/01 16:30:52;;;;;;;;;;;;;;;;;;5009563;28;20497;-66
2023/10/01 16:33:21;;;;;;;;;;;;;;;;;;5009902;28;20159;-66
2023/10/01 16:35:50;;;;;;;;;;;;;;;;;;5021934;28;19921;-66
2023/10/01 16:38:15;;;;;;;;;;;;;;;;;;5008928;28;19927;-66
2023/10/01 16:40:48;;;;;;;;;;;;;;;;;;5006988;28;20696;-66
2023/10/01 16:43:18;;;;;;;;;;;;;;;;;;5006987;28;19925;-65
2023/10/01 16:45:44;;;;;;;;;;;;;;;;;;5008028;28;19971;-66
2023/10/01 16:48:10;;;;;;;;;;;;;;;;;;5006882;28;19925;-65
2023/10/01 16:50:36;;;;;;;;;;;;;;;;;;5006325;28;19921;-65
2023/10/01 16:53:04;;;;;;;;;;;;;;;;;;5020114;28;20106;-65
2023/10/01 16:55:35;;;;;;;;;;;;;;;;;;4991193;28;19936;-65
2023/10/01 16:58:00;;;;;;;;;;;;;;;;;;5013103;28;20003;-65
2023/10/01 17:00:37;;;;;;;;;;;;;;;;;;5029203;28;20460;-64
2023/10/01 17:03:10;;;;;;;;;;;;;;;;;;5012508;28;19925;-66
2023/10/01 17:05:38;;;;;;;;;;;;;;;;;;5007420;28;19967;-65
2023/10/01 17:08:13;;;;;;;;;;;;;;;;;;5010058;28;19921;-65
2023/10/01 17:10:42;;;;;;;;;;;;;;;;;;5011856;28;19928;-64
2023/10/01 17:13:11;;;;;;;;;;;;;;;;;;4995359;28;19964;-65
2023/10/01 17:15:39;;;;;;;;;;;;;;;;;;5013894;28;19981;-64
2023/10/01 17:18:05;;;;;;;;;;;;;;;;;;5015327;28;19930;-65
2023/10/01 17:20:30;;;;;;;;;;;;;;;;;;5013448;28;20230;-65
2023/10/01 17:23:00;;;;;;;;;;;;;;;;;;5010189;28;19960;-65
2023/10/01 17:25:29;;;;;;;;;;;;;;;;;;4994444;28;19928;-65
2023/10/01 17:27:55;;;;;;;;;;;;;;;;;;5014358;28;19944;-66
2023/10/01 17:30:23;;;;;;;;;;;;;;;;;;5007032;28;19921;-65
2023/10/01 17:33:00;;;;;;;;;;;;;;;;;;5029248;28;20066;-66
2023/10/01 17:35:25;;;;;;;;;;;;;;;;;;5010422;28;20079;-65
2023/10/01 17:37:51;;;;;;;;;;;;;;;;;;5012948;28;19921;-65
2023/10/01 17:40:17;;;;;;;;;;;;;;;;;;5029162;28;19963;-65
2023/10/01 17:42:45;;;;;;;;;;;;;;;;;;5007191;28;19931;-66
2023/10/01 17:45:13;;;;;;;;;;;;;;;;;;5014561;28;19947;-66
2023/10/01 17:47:44;;;;;;;;;;;;;;;;;;4995548;28;22409;-66
2023/10/01 17:50:15;;;;;;;;;;;;;;;;;;5016170;28;22011;-66
2023/10/01 17:52:42;;;;;;;;;;;;;;;;;;4994756;28;20320;-65
2023/10/01 17:55:07;;;;;;;;;;;;;;;;;;5028202;28;19967;-66
2023/10/01 17:57:38;;;;;;;;;;;;;;;;;;5027670;28;20043;-66
2023/10/01 18:00:09;;;;;;;;;;;;;;;;;;5024846;28;19935;-66
2023/10/01 18:02:38;;;;;;;;;;;;;;;;;;5046431;28;19920;-66
2023/10/01 18:05:17;;;;;;;;;;;;;;;;;;5027364;28;20003;-66
2023/10/01 18:07:51;;;;;;;;;;;;;;;;;;5043308;28;19921;-66
2023/10/01 18:10:25;;;;;;;;;;;;;;;;;;5007200;28;19966;-66
2023/10/01 18:12:51;;;;;;;;;;;;;;;;;;5045721;28;19917;-67
2023/10/01 18:15:20;;;;;;;;;;;;;;;;;;5027542;28;19974;-66
2023/10/01 18:17:47;;;;;;;;;;;;;;;;;;5048138;28;20260;-66
2023/10/01 18:20:18;;;;;;;;;;;;;;;;;;5026895;28;19917;-65
2023/10/01 18:22:51;;;;;;;;;;;;;;;;;;5026575;28;20695;-66
2023/10/01 18:25:19;;;;;;;;;;;;;;;;;;5025733;28;19920;-66
2023/10/01 18:27:54;;;;;;;;;;;;;;;;;;5045060;28;19916;-65
2023/10/01 18:30:19;;;;;;;;;;;;;;;;;;5011442;28;19921;-66
2023/10/01 18:36:18;;;;;;;;;;;;;;;;;;5047583;28;20023;-66
2023/10/01 18:38:44;;;;;;;;;;;;;;;;;;5024855;28;20011;-66
2023/10/01 18:41:20;;;;;;;;;;;;;;;;;;5048347;28;19928;-66
2023/10/01 18:43:45;;;;;;;;;;;;;;;;;;5026533;28;19932;-66